createdAt,value
2017-01-11T00:00:48.668Z,21.03
2017-01-11T00:01:47.893Z,21.12
2017-01-11T00:02:48.713Z,21.12
2017-01-11T00:03:48.739Z,21.04
2017-01-11T00:04:48.376Z,21.04
2017-01-11T00:05:48.796Z,21.12
2017-01-11T00:06:48.823Z,21.06
2017-01-11T00:07:48.458Z,21.04
2017-01-11T00:08:48.872Z,21.06
2017-01-11T00:09:48.112Z,21.06
2017-01-11T00:10:48.537Z,20.97
2017-01-11T00:11:48.170Z,21.03
2017-01-11T00:12:48.591Z,21.03
2017-01-11T00:13:48.617Z,21.1
2017-01-11T00:14:49.028Z,21.03
2017-01-11T00:15:48.673Z,21.04
2017-01-11T00:16:49.081Z,21.1
2017-01-11T00:17:48.722Z,20.99
2017-01-11T00:18:48.754Z,20.97
2017-01-11T00:19:48.775Z,21.06
2017-01-11T00:20:48.803Z,20.94
2017-01-11T00:21:49.221Z,20.98
2017-01-11T00:22:49.262Z,20.94
2017-01-11T00:23:49.286Z,20.99
2017-01-11T00:24:48.514Z,20.94
2017-01-11T00:25:49.359Z,20.95
2017-01-11T00:26:49.364Z,20.97
2017-01-11T00:27:48.992Z,20.94
2017-01-11T00:28:48.625Z,20.92
2017-01-11T00:29:49.439Z,20.97
2017-01-11T00:30:48.683Z,20.89
2017-01-11T00:31:48.707Z,20.95
2017-01-11T00:32:49.139Z,21.01
2017-01-11T00:33:49.149Z,20.98
2017-01-11T00:34:48.785Z,20.91
2017-01-11T00:35:49.198Z,20.85
2017-01-11T00:36:48.834Z,20.87
2017-01-11T00:37:49.658Z,20.85
2017-01-11T00:38:49.293Z,20.89
2017-01-11T00:41:12.133Z,20.84
2017-01-11T00:42:12.555Z,20.88
2017-01-11T00:43:12.976Z,20.84
2017-01-11T00:44:12.603Z,20.88
2017-01-11T00:46:12.265Z,20.74
2017-01-11T00:47:12.686Z,20.87
2017-01-11T00:48:12.718Z,20.77
2017-01-11T00:49:13.140Z,20.79
2017-01-11T00:50:13.159Z,20.84
2017-01-11T00:51:13.196Z,20.82
2017-01-11T00:53:13.259Z,20.79
2017-01-11T00:54:13.267Z,20.76
2017-01-11T00:55:13.296Z,20.76
2017-01-11T00:56:13.325Z,20.8
2017-01-11T00:57:12.950Z,20.74
2017-01-11T00:58:13.378Z,20.77
2017-01-11T00:59:12.619Z,20.72
2017-01-11T01:00:13.036Z,20.69
2017-01-11T01:01:13.064Z,20.74
2017-01-11T01:02:13.097Z,20.73
2017-01-11T01:03:13.514Z,20.72
2017-01-11T01:04:13.146Z,20.8
2017-01-11T01:05:13.170Z,20.7
2017-01-11T01:06:13.196Z,20.77
2017-01-11T01:07:13.221Z,20.67
2017-01-11T01:08:13.646Z,20.62
2017-01-11T01:09:12.890Z,20.73
2017-01-11T01:10:13.302Z,20.69
2017-01-11T01:11:13.356Z,20.76
2017-01-11T01:12:13.365Z,20.67
2017-01-11T01:13:12.989Z,20.64
2017-01-11T01:14:13.803Z,20.62
2017-01-11T01:15:13.427Z,20.7
2017-01-11T01:16:13.860Z,20.76
2017-01-11T01:17:13.493Z,20.62
2017-01-11T01:18:13.121Z,20.62
2017-01-11T01:19:13.150Z,20.61
2017-01-11T01:20:13.567Z,20.66
2017-01-11T01:21:13.995Z,20.67
2017-01-11T01:22:14.024Z,20.58
2017-01-11T01:23:14.053Z,20.59
2017-01-11T01:30:01.447Z,20.51
2017-01-11T01:30:46.578Z,20.66
2017-01-11T01:31:46.602Z,20.54
2017-01-11T01:32:47.020Z,20.57
2017-01-11T01:33:46.250Z,20.55
2017-01-11T01:34:46.682Z,20.59
2017-01-11T01:35:46.703Z,20.54
2017-01-11T01:36:47.131Z,20.59
2017-01-11T01:37:46.761Z,20.54
2017-01-11T01:38:47.181Z,20.55
2017-01-11T01:39:46.813Z,20.57
2017-01-11T01:41:47.255Z,20.5
2017-01-11T01:42:47.288Z,20.5
2017-01-11T01:43:46.524Z,20.48
2017-01-11T01:44:46.954Z,20.43
2017-01-11T01:45:46.967Z,20.48
2017-01-11T01:46:47.400Z,20.48
2017-01-11T01:47:47.024Z,20.5
2017-01-11T01:48:47.453Z,20.48
2017-01-11T01:49:47.473Z,20.48
2017-01-11T01:50:47.506Z,20.47
2017-01-11T01:51:47.129Z,20.5
2017-01-11T01:52:47.168Z,20.52
2017-01-11T01:53:47.201Z,20.51
2017-01-11T01:54:47.206Z,20.52
2017-01-11T01:55:47.637Z,20.51
2017-01-11T01:57:02.167Z,20.39
2017-01-11T01:57:47.683Z,20.5
2017-01-11T01:58:47.320Z,20.47
2017-01-11T01:59:46.944Z,20.52
2017-01-11T02:00:46.972Z,20.43
2017-01-11T02:01:48.018Z,20.36
2017-01-11T02:02:47.822Z,20.43
2017-01-11T02:03:47.450Z,20.43
2017-01-11T02:04:47.875Z,20.41
2017-01-11T02:05:47.099Z,20.41
2017-01-11T02:06:47.919Z,20.39
2017-01-11T02:07:47.556Z,20.43
2017-01-11T02:08:47.580Z,20.39
2017-01-11T02:09:47.205Z,20.35
2017-01-11T02:10:48.030Z,20.43
2017-01-11T02:11:47.658Z,20.33
2017-01-11T02:12:47.318Z,20.39
2017-01-11T02:13:47.719Z,20.42
2017-01-11T02:14:47.740Z,20.41
2017-01-11T02:15:48.165Z,20.38
2017-01-11T02:16:47.394Z,20.38
2017-01-11T02:17:48.209Z,20.35
2017-01-11T02:18:48.237Z,20.36
2017-01-11T02:19:47.874Z,20.38
2017-01-11T02:20:47.502Z,20.39
2017-01-11T02:21:47.915Z,20.35
2017-01-11T02:22:48.344Z,20.38
2017-01-11T02:23:47.969Z,20.39
2017-01-11T02:24:48.002Z,20.31
2017-01-11T02:25:48.026Z,20.35
2017-01-11T02:26:48.051Z,20.32
2017-01-11T02:27:48.079Z,20.32
2017-01-11T02:28:48.496Z,20.41
2017-01-11T02:29:47.736Z,20.33
2017-01-11T02:30:48.157Z,20.26
2017-01-11T02:31:47.782Z,20.35
2017-01-11T02:32:48.601Z,20.31
2017-01-11T02:33:48.630Z,20.32
2017-01-11T02:34:48.659Z,20.38
2017-01-11T02:35:48.692Z,20.31
2017-01-11T02:36:48.309Z,20.28
2017-01-11T02:37:48.739Z,20.24
2017-01-11T02:38:48.365Z,20.35
2017-01-11T02:42:12.014Z,20.31
2017-01-11T02:43:12.085Z,20.31
2017-01-11T02:47:58.147Z,20.18
2017-01-11T02:48:57.776Z,20.28
2017-01-11T02:50:13.107Z,20.17
2017-01-11T02:50:58.226Z,20.18
2017-01-11T02:51:58.250Z,20.29
2017-01-11T02:52:58.675Z,20.17
2017-01-11T02:53:58.303Z,20.18
2017-01-11T02:56:06.737Z,20.26
2017-01-11T02:57:06.770Z,20.17
2017-01-11T02:58:06.802Z,20.13
2017-01-11T02:59:06.032Z,20.13
2017-01-11T03:00:06.845Z,20.16
2017-01-11T03:01:06.874Z,20.13
2017-01-11T03:02:06.898Z,20.14
2017-01-11T03:03:06.535Z,20.2
2017-01-11T03:04:06.548Z,20.23
2017-01-11T03:05:06.579Z,20.16
2017-01-11T03:06:06.613Z,20.17
2017-01-11T03:07:06.638Z,20.14
2017-01-11T03:08:06.655Z,20.16
2017-01-11T03:09:06.687Z,20.16
2017-01-11T03:10:07.116Z,20.14
2017-01-11T03:11:06.345Z,20.14
2017-01-11T03:12:06.775Z,20.16
2017-01-11T03:13:06.795Z,20.23
2017-01-11T03:14:07.222Z,20.14
2017-01-11T03:15:06.844Z,20.13
2017-01-11T03:16:07.273Z,20.16
2017-01-11T03:17:07.301Z,20.05
2017-01-11T03:18:06.926Z,20.11
2017-01-11T03:19:07.351Z,20.13
2017-01-11T03:20:07.368Z,20.14
2017-01-11T03:21:07.009Z,20.05
2017-01-11T03:22:07.034Z,20.14
2017-01-11T03:23:06.658Z,20.03
2017-01-11T03:24:07.484Z,20.14
2017-01-11T03:25:06.713Z,20.02
2017-01-11T03:26:07.140Z,20.01
2017-01-11T03:27:07.165Z,20.08
2017-01-11T03:28:07.190Z,20.08
2017-01-11T03:29:07.615Z,20.05
2017-01-11T03:30:07.276Z,20.05
2017-01-11T03:31:07.669Z,20.01
2017-01-11T03:32:06.902Z,20.02
2017-01-11T03:33:07.719Z,20.11
2017-01-11T03:34:07.347Z,20.11
2017-01-11T03:35:07.372Z,20.06
2017-01-11T03:36:07.001Z,20.03
2017-01-11T03:37:07.822Z,20.03
2017-01-11T03:38:07.451Z,20.06
2017-01-11T03:39:07.483Z,20.08
2017-01-11T03:40:07.900Z,20.03
2017-01-11T03:41:07.534Z,20.06
2017-01-11T03:42:07.162Z,20.06
2017-01-11T03:43:07.983Z,20.06
2017-01-11T03:44:07.615Z,20.08
2017-01-11T03:45:07.246Z,20.08
2017-01-11T03:46:07.674Z,20.11
2017-01-11T03:47:07.699Z,20.08
2017-01-11T03:48:07.719Z,20.02
2017-01-11T03:49:07.747Z,20.03
2017-01-11T03:50:07.376Z,20.02
2017-01-11T03:51:07.398Z,20.02
2017-01-11T03:52:07.426Z,19.99
2017-01-11T03:53:07.851Z,20.08
2017-01-11T03:54:07.476Z,20.08
2017-01-11T03:55:08.309Z,20.01
2017-01-11T03:56:08.322Z,20.02
2017-01-11T03:57:08.350Z,20.1
2017-01-11T03:58:07.982Z,20.05
2017-01-11T03:59:07.612Z,20.01
2017-01-11T04:00:07.641Z,19.95
2017-01-11T04:01:08.465Z,20.01
2017-01-11T04:02:08.095Z,20.01
2017-01-11T04:03:08.119Z,19.98
2017-01-11T04:04:08.537Z,19.99
2017-01-11T04:05:08.566Z,19.99
2017-01-11T04:06:07.802Z,19.99
2017-01-11T04:07:07.823Z,20.01
2017-01-11T04:08:08.653Z,20.02
2017-01-11T04:09:08.273Z,19.99
2017-01-11T04:10:07.901Z,19.95
2017-01-11T04:11:07.926Z,19.94
2017-01-11T04:12:08.351Z,19.96
2017-01-11T04:13:08.782Z,20.05
2017-01-11T04:14:08.405Z,19.94
2017-01-11T04:15:08.434Z,19.99
2017-01-11T04:16:08.854Z,20.02
2017-01-11T04:17:08.090Z,19.99
2017-01-11T04:18:08.112Z,19.96
2017-01-11T04:19:08.933Z,19.98
2017-01-11T04:20:08.960Z,19.94
2017-01-11T04:21:08.590Z,19.98
2017-01-11T04:22:08.225Z,19.92
2017-01-11T04:23:09.040Z,19.98
2017-01-11T04:24:08.669Z,19.96
2017-01-11T04:25:08.698Z,19.99
2017-01-11T04:26:08.727Z,20.01
2017-01-11T04:27:08.747Z,19.96
2017-01-11T04:28:09.168Z,20.01
2017-01-11T04:29:08.401Z,19.95
2017-01-11T04:30:08.826Z,19.94
2017-01-11T04:32:18.868Z,19.96
2017-01-11T04:33:17.592Z,19.96
2017-01-11T04:34:17.230Z,19.95
2017-01-11T04:39:41.797Z,19.96
2017-01-11T04:40:27.709Z,19.98
2017-01-11T04:41:27.751Z,19.86
2017-01-11T04:42:41.872Z,19.96
2017-01-11T04:43:58.666Z,19.92
2017-01-11T04:49:35.170Z,19.86
2017-01-11T04:50:35.202Z,19.96
2017-01-11T04:51:35.219Z,19.88
2017-01-11T04:52:35.252Z,19.86
2017-01-11T04:53:34.880Z,19.86
2017-01-11T04:55:05.106Z,19.87
2017-01-11T04:55:35.370Z,19.94
2017-01-11T04:56:35.407Z,19.94
2017-01-11T04:57:35.834Z,19.86
2017-01-11T04:58:38.156Z,19.88
2017-01-11T05:00:05.469Z,19.91
2017-01-11T05:06:40.467Z,19.87
2017-01-11T05:07:10.880Z,19.91
2017-01-11T05:08:09.995Z,19.86
2017-01-11T05:09:10.016Z,19.86
2017-01-11T05:10:10.052Z,19.92
2017-01-11T05:11:10.073Z,19.87
2017-01-11T05:12:10.894Z,19.81
2017-01-11T05:13:10.523Z,19.88
2017-01-11T05:14:10.548Z,19.8
2017-01-11T05:15:10.976Z,19.83
2017-01-11T05:16:10.993Z,19.81
2017-01-11T05:17:10.629Z,19.86
2017-01-11T05:18:11.049Z,19.86
2017-01-11T05:19:11.071Z,19.86
2017-01-11T05:20:10.699Z,19.83
2017-01-11T05:21:11.128Z,19.84
2017-01-11T05:22:11.157Z,19.84
2017-01-11T05:23:10.790Z,19.91
2017-01-11T05:24:11.201Z,19.8
2017-01-11T05:25:10.827Z,19.87
2017-01-11T05:26:10.871Z,19.91
2017-01-11T05:27:10.488Z,19.81
2017-01-11T05:28:10.912Z,19.84
2017-01-11T05:29:11.338Z,19.84
2017-01-11T05:30:11.356Z,19.86
2017-01-11T05:31:10.594Z,19.81
2017-01-11T05:32:11.023Z,19.84
2017-01-11T05:33:11.048Z,19.86
2017-01-11T05:34:11.469Z,19.88
2017-01-11T05:35:11.488Z,19.92
2017-01-11T05:36:11.518Z,19.92
2017-01-11T05:37:11.549Z,19.86
2017-01-11T05:38:11.571Z,19.95
2017-01-11T05:39:11.208Z,19.95
2017-01-11T05:40:10.833Z,19.98
2017-01-11T05:41:10.873Z,19.88
2017-01-11T05:42:11.283Z,19.96
2017-01-11T05:43:11.307Z,20.02
2017-01-11T05:44:11.328Z,20.03
2017-01-11T05:45:11.764Z,20.11
2017-01-11T05:46:11.379Z,20.03
2017-01-11T05:47:11.410Z,20.06
2017-01-11T05:48:11.045Z,20.06
2017-01-11T05:49:11.067Z,20.06
2017-01-11T05:50:11.100Z,20.16
2017-01-11T05:51:11.125Z,20.2
2017-01-11T05:52:11.547Z,20.18
2017-01-11T05:53:11.570Z,20.17
2017-01-11T05:54:11.994Z,20.21
2017-01-11T05:55:11.619Z,20.23
2017-01-11T05:56:11.660Z,20.31
2017-01-11T05:57:11.672Z,20.31
2017-01-11T05:58:11.709Z,20.33
2017-01-11T05:59:12.118Z,20.31
2017-01-11T06:00:12.150Z,20.36
2017-01-11T06:01:11.779Z,20.36
2017-01-11T06:02:12.200Z,20.35
2017-01-11T06:03:11.832Z,20.43
2017-01-11T06:04:11.873Z,20.43
2017-01-11T06:05:11.882Z,20.42
2017-01-11T06:06:11.915Z,20.52
2017-01-11T06:07:11.931Z,20.51
2017-01-11T06:08:11.616Z,20.48
2017-01-11T06:09:12.386Z,20.52
2017-01-11T06:10:41.414Z,20.55
2017-01-11T06:11:12.046Z,20.61
2017-01-11T06:12:12.070Z,20.57
2017-01-11T06:13:12.511Z,20.54
2017-01-11T06:14:12.120Z,20.64
2017-01-11T06:15:12.153Z,20.64
2017-01-11T06:16:11.771Z,20.73
2017-01-11T06:17:12.198Z,20.69
2017-01-11T06:18:12.215Z,20.62
2017-01-11T06:19:12.251Z,20.67
2017-01-11T06:20:12.668Z,20.67
2017-01-11T06:21:12.705Z,20.73
2017-01-11T06:22:12.329Z,20.69
2017-01-11T06:23:11.950Z,20.7
2017-01-11T06:24:12.390Z,20.76
2017-01-11T06:25:12.405Z,20.76
2017-01-11T06:26:12.040Z,20.74
2017-01-11T06:27:12.065Z,20.76
2017-01-11T06:28:12.885Z,20.74
2017-01-11T06:29:12.519Z,20.77
2017-01-11T06:30:12.931Z,20.76
2017-01-11T06:31:12.171Z,20.76
2017-01-11T06:32:12.596Z,20.84
2017-01-11T06:33:12.619Z,20.88
2017-01-11T06:34:12.250Z,20.88
2017-01-11T06:35:12.666Z,20.84
2017-01-11T06:36:12.315Z,20.88
2017-01-11T06:37:13.120Z,20.82
2017-01-11T06:38:13.149Z,20.85
2017-01-11T06:39:13.169Z,20.88
2017-01-11T06:40:12.429Z,20.87
2017-01-11T06:41:13.226Z,20.88
2017-01-11T06:42:12.856Z,20.98
2017-01-11T06:43:13.283Z,21.01
2017-01-11T06:44:12.908Z,20.91
2017-01-11T06:45:13.329Z,20.94
2017-01-11T06:46:13.362Z,20.92
2017-01-11T06:47:13.379Z,20.95
2017-01-11T06:48:13.011Z,20.91
2017-01-11T06:49:13.032Z,20.94
2017-01-11T06:50:13.065Z,20.97
2017-01-11T06:51:12.702Z,21.04
2017-01-11T06:52:12.728Z,20.95
2017-01-11T06:53:13.543Z,20.99
2017-01-11T06:54:13.176Z,21.01
2017-01-11T06:55:13.192Z,20.97
2017-01-11T06:56:13.627Z,20.88
2017-01-11T06:57:13.645Z,20.97
2017-01-11T06:58:13.674Z,20.99
2017-01-11T06:59:13.311Z,20.92
2017-01-11T07:00:12.939Z,20.92
2017-01-11T07:01:13.361Z,20.89
2017-01-11T07:02:13.381Z,20.97
2017-01-11T07:03:13.414Z,21.01
2017-01-11T07:04:13.043Z,20.89
2017-01-11T07:05:13.861Z,20.92
2017-01-11T07:06:13.498Z,20.94
2017-01-11T07:07:13.513Z,21.01
2017-01-11T07:08:13.145Z,20.98
2017-01-11T07:09:13.967Z,20.89
2017-01-11T07:10:13.210Z,20.95
2017-01-11T07:11:13.631Z,20.97
2017-01-11T07:12:14.050Z,21.01
2017-01-11T07:13:13.677Z,20.92
2017-01-11T07:14:13.709Z,20.99
2017-01-11T07:15:14.127Z,20.97
2017-01-11T07:16:13.755Z,20.97
2017-01-11T07:18:22.916Z,20.99
2017-01-11T07:19:22.525Z,20.98
2017-01-11T07:20:22.558Z,20.92
2017-01-11T07:21:22.187Z,20.91
2017-01-11T07:22:22.611Z,21.04
2017-01-11T07:23:22.632Z,21.07
2017-01-11T07:24:23.061Z,20.98
2017-01-11T07:25:23.087Z,20.98
2017-01-11T07:26:23.110Z,21.04
2017-01-11T07:27:22.742Z,20.95
2017-01-11T07:28:22.771Z,21.09
2017-01-11T07:29:22.795Z,20.95
2017-01-11T07:30:22.429Z,21.04
2017-01-11T07:31:22.454Z,20.92
2017-01-11T07:32:23.270Z,20.99
2017-01-11T07:33:22.502Z,21.01
2017-01-11T07:34:23.328Z,20.95
2017-01-11T07:35:22.961Z,20.98
2017-01-11T07:36:23.377Z,21.04
2017-01-11T07:37:23.408Z,20.91
2017-01-11T07:38:22.630Z,21.01
2017-01-11T07:39:23.059Z,21.01
2017-01-11T07:40:23.092Z,20.92
2017-01-11T07:41:23.121Z,20.97
2017-01-11T07:42:22.745Z,20.97
2017-01-11T07:43:23.170Z,20.97
2017-01-11T07:44:23.590Z,20.95
2017-01-11T07:45:23.619Z,20.89
2017-01-11T07:46:23.644Z,20.91
2017-01-11T07:47:23.673Z,20.94
2017-01-11T07:48:23.305Z,20.94
2017-01-11T07:49:23.730Z,20.95
2017-01-11T07:50:38.887Z,20.88
2017-01-11T07:51:23.414Z,21.04
2017-01-11T07:52:23.410Z,20.91
2017-01-11T07:53:23.041Z,20.88
2017-01-11T07:54:23.855Z,20.95
2017-01-11T07:55:23.487Z,20.87
2017-01-11T07:56:23.514Z,21.01
2017-01-11T07:57:23.140Z,20.98
2017-01-11T07:58:23.564Z,20.88
2017-01-11T07:59:23.201Z,20.92
2017-01-11T08:00:23.222Z,20.87
2017-01-11T08:01:23.651Z,20.92
2017-01-11T08:02:24.071Z,20.98
2017-01-11T08:03:23.692Z,20.84
2017-01-11T08:04:23.716Z,20.87
2017-01-11T08:05:23.761Z,20.88
2017-01-11T08:06:23.414Z,20.92
2017-01-11T08:07:23.415Z,20.85
2017-01-11T08:08:23.832Z,20.77
2017-01-11T08:09:23.861Z,20.88
2017-01-11T08:10:24.284Z,20.87
2017-01-11T08:11:24.309Z,20.87
2017-01-11T08:12:23.546Z,20.74
2017-01-11T08:13:23.971Z,20.8
2017-01-11T08:14:24.384Z,20.77
2017-01-11T08:15:24.020Z,20.85
2017-01-11T08:16:24.049Z,20.74
2017-01-11T08:17:23.683Z,20.82
2017-01-11T08:18:24.103Z,20.76
2017-01-11T08:19:24.533Z,20.74
2017-01-11T08:20:24.559Z,20.79
2017-01-11T08:21:24.585Z,20.79
2017-01-11T08:22:24.241Z,20.67
2017-01-11T08:23:24.630Z,20.77
2017-01-11T08:24:23.870Z,20.7
2017-01-11T08:25:24.291Z,20.79
2017-01-11T08:26:24.708Z,20.7
2017-01-11T08:27:24.341Z,20.77
2017-01-11T08:28:24.766Z,20.79
2017-01-11T08:29:24.799Z,20.73
2017-01-11T08:30:24.419Z,20.73
2017-01-11T08:31:24.443Z,20.7
2017-01-11T08:32:24.868Z,20.79
2017-01-11T08:33:24.501Z,20.62
2017-01-11T08:34:24.130Z,20.62
2017-01-11T08:35:24.559Z,20.62
2017-01-11T08:36:24.187Z,20.64
2017-01-11T08:37:24.604Z,20.64
2017-01-11T08:38:25.037Z,20.61
2017-01-11T08:39:24.655Z,20.62
2017-01-11T08:40:25.113Z,20.69
2017-01-11T08:41:24.715Z,20.64
2017-01-11T08:42:24.740Z,20.61
2017-01-11T08:43:24.765Z,20.66
2017-01-11T08:44:25.198Z,20.64
2017-01-11T08:45:24.823Z,20.64
2017-01-11T08:46:25.271Z,20.62
2017-01-11T08:47:25.271Z,20.72
2017-01-11T08:48:25.296Z,20.66
2017-01-11T08:49:25.333Z,20.62
2017-01-11T08:50:25.354Z,20.62
2017-01-11T08:51:25.379Z,20.59
2017-01-11T08:52:25.007Z,20.67
2017-01-11T08:53:25.433Z,20.62
2017-01-11T08:54:25.061Z,20.62
2017-01-11T08:55:25.481Z,20.66
2017-01-11T08:56:25.506Z,20.64
2017-01-11T08:57:25.138Z,20.61
2017-01-11T08:58:25.164Z,20.66
2017-01-11T08:59:25.196Z,20.59
2017-01-11T09:00:25.225Z,20.55
2017-01-11T09:01:25.250Z,20.62
2017-01-11T09:02:25.275Z,20.61
2017-01-11T09:03:25.295Z,20.57
2017-01-11T09:04:25.724Z,20.61
2017-01-11T09:05:25.354Z,20.57
2017-01-11T09:06:25.777Z,20.62
2017-01-11T09:07:25.004Z,20.59
2017-01-11T09:08:25.039Z,20.58
2017-01-11T09:09:25.456Z,20.51
2017-01-11T09:10:25.089Z,20.57
2017-01-11T09:11:25.909Z,20.58
2017-01-11T09:12:25.538Z,20.55
2017-01-11T09:13:25.962Z,20.61
2017-01-11T09:14:25.595Z,20.54
2017-01-11T09:15:26.016Z,20.55
2017-01-11T09:16:25.645Z,20.59
2017-01-11T09:17:25.669Z,20.59
2017-01-11T09:18:25.694Z,20.52
2017-01-11T09:19:25.723Z,20.57
2017-01-11T09:20:26.148Z,20.55
2017-01-11T09:21:26.176Z,20.61
2017-01-11T09:22:25.801Z,20.43
2017-01-11T09:23:25.437Z,20.48
2017-01-11T09:24:26.250Z,20.51
2017-01-11T09:25:25.887Z,20.55
2017-01-11T09:26:25.512Z,20.54
2017-01-11T09:27:25.541Z,20.47
2017-01-11T09:28:26.353Z,20.52
2017-01-11T09:29:26.383Z,20.52
2017-01-11T09:30:25.623Z,20.52
2017-01-11T09:31:26.439Z,20.48
2017-01-11T09:32:26.072Z,20.48
2017-01-11T09:33:26.097Z,20.5
2017-01-11T09:34:26.126Z,20.5
2017-01-11T09:35:26.569Z,20.41
2017-01-11T09:36:26.575Z,20.48
2017-01-11T09:37:26.601Z,20.39
2017-01-11T09:38:26.230Z,20.42
2017-01-11T09:39:25.857Z,20.38
2017-01-11T09:40:26.278Z,20.39
2017-01-11T09:41:26.314Z,20.38
2017-01-11T09:42:26.335Z,20.41
2017-01-11T09:43:26.361Z,20.36
2017-01-11T09:44:26.385Z,20.38
2017-01-11T09:45:26.814Z,20.39
2017-01-11T09:46:26.442Z,20.38
2017-01-11T09:47:26.466Z,20.36
2017-01-11T09:48:26.903Z,20.36
2017-01-11T09:49:26.517Z,20.35
2017-01-11T09:50:26.941Z,20.32
2017-01-11T09:51:26.182Z,20.32
2017-01-11T09:52:26.210Z,20.35
2017-01-11T09:53:26.628Z,20.35
2017-01-11T09:54:27.052Z,20.36
2017-01-11T09:55:26.679Z,20.38
2017-01-11T09:56:26.313Z,20.36
2017-01-11T09:57:27.126Z,20.35
2017-01-11T09:58:27.171Z,20.35
2017-01-11T09:59:26.788Z,20.36
2017-01-11T10:00:26.812Z,20.32
2017-01-11T10:01:27.237Z,20.35
2017-01-11T10:02:27.258Z,20.32
2017-01-11T10:03:27.283Z,20.36
2017-01-11T10:04:26.539Z,20.39
2017-01-11T10:05:26.944Z,20.36
2017-01-11T10:06:26.973Z,20.35
2017-01-11T10:07:27.394Z,20.41
2017-01-11T10:08:27.414Z,20.35
2017-01-11T10:09:27.451Z,20.35
2017-01-11T10:10:27.476Z,20.32
2017-01-11T10:11:27.496Z,20.35
2017-01-11T10:12:26.737Z,20.29
2017-01-11T10:13:26.761Z,20.35
2017-01-11T10:18:21.937Z,20.23
2017-01-11T10:19:21.966Z,20.31
2017-01-11T10:20:22.397Z,20.28
2017-01-11T10:21:22.418Z,20.29
2017-01-11T10:22:22.042Z,20.24
2017-01-11T10:23:22.067Z,20.28
2017-01-11T10:24:22.099Z,20.23
2017-01-11T10:25:22.516Z,20.29
2017-01-11T10:26:22.553Z,20.28
2017-01-11T10:27:21.776Z,20.26
2017-01-11T10:28:22.602Z,20.26
2017-01-11T10:29:22.231Z,20.18
2017-01-11T10:30:22.660Z,20.21
2017-01-11T10:31:22.284Z,20.2
2017-01-11T10:32:22.317Z,20.2
2017-01-11T10:33:22.733Z,20.18
2017-01-11T10:34:22.758Z,20.17
2017-01-11T10:35:22.391Z,20.17
2017-01-11T10:36:22.019Z,20.14
2017-01-11T10:37:22.439Z,20.16
2017-01-11T10:38:22.068Z,20.23
2017-01-11T10:39:22.493Z,20.18
2017-01-11T10:40:22.126Z,20.24
2017-01-11T10:41:22.946Z,20.16
2017-01-11T10:42:22.571Z,20.13
2017-01-11T10:43:22.996Z,20.2
2017-01-11T10:44:23.022Z,20.17
2017-01-11T10:45:22.653Z,20.28
2017-01-11T10:46:22.685Z,20.17
2017-01-11T10:47:22.711Z,20.23
2017-01-11T10:48:22.371Z,20.18
2017-01-11T10:49:22.760Z,20.16
2017-01-11T10:50:23.176Z,20.2
2017-01-11T10:51:22.813Z,20.17
2017-01-11T10:52:22.462Z,20.2
2017-01-11T10:53:22.862Z,20.23
2017-01-11T10:54:22.887Z,20.2
2017-01-11T10:55:23.316Z,20.16
2017-01-11T10:56:22.945Z,20.18
2017-01-11T10:57:22.970Z,20.16
2017-01-11T10:58:23.390Z,20.18
2017-01-11T10:59:23.015Z,20.21
2017-01-11T11:00:22.644Z,20.18
2017-01-11T11:01:23.468Z,20.14
2017-01-11T11:02:23.101Z,20.16
2017-01-11T11:03:23.122Z,20.14
2017-01-11T11:04:23.151Z,20.17
2017-01-11T11:05:23.170Z,20.21
2017-01-11T11:06:23.204Z,20.14
2017-01-11T11:07:23.628Z,20.17
2017-01-11T11:08:22.868Z,20.1
2017-01-11T11:09:23.282Z,20.08
2017-01-11T11:10:23.710Z,20.14
2017-01-11T11:11:23.336Z,20.13
2017-01-11T11:12:52.761Z,20.01
2017-01-11T11:13:23.393Z,20.01
2017-01-11T11:14:23.810Z,20.14
2017-01-11T11:15:24.054Z,20.16
2017-01-11T11:16:23.878Z,20.03
2017-01-11T11:17:23.100Z,20.03
2017-01-11T11:18:23.532Z,20.11
2017-01-11T11:19:23.945Z,20.03
2017-01-11T11:20:23.186Z,20.05
2017-01-11T11:21:23.998Z,20.06
2017-01-11T11:22:23.623Z,20.03
2017-01-11T11:23:24.052Z,20.06
2017-01-11T11:24:24.073Z,20.11
2017-01-11T11:25:24.101Z,20.1
2017-01-11T11:26:24.131Z,20.05
2017-01-11T11:27:23.756Z,20.08
2017-01-11T11:28:23.789Z,20.06
2017-01-11T11:29:23.809Z,20.1
2017-01-11T11:30:24.225Z,20.05
2017-01-11T11:31:23.864Z,19.91
2017-01-11T11:32:23.891Z,20.05
2017-01-11T11:33:23.936Z,20.02
2017-01-11T11:34:23.549Z,20.08
2017-01-11T11:35:23.974Z,20.06
2017-01-11T11:36:23.995Z,20.05
2017-01-11T11:37:24.419Z,20.05
2017-01-11T11:38:24.448Z,19.92
2017-01-11T11:39:24.077Z,20.03
2017-01-11T11:40:24.100Z,19.99
2017-01-11T11:41:24.130Z,19.96
2017-01-11T11:42:23.759Z,19.91
2017-01-11T11:43:24.179Z,19.96
2017-01-11T11:44:24.603Z,19.92
2017-01-11T11:45:23.846Z,19.94
2017-01-11T11:46:24.263Z,19.96
2017-01-11T11:47:24.283Z,19.95
2017-01-11T11:48:24.316Z,19.91
2017-01-11T11:49:24.336Z,19.92
2017-01-11T11:50:23.978Z,19.96
2017-01-11T11:51:24.398Z,19.96
2017-01-11T11:52:24.809Z,19.95
2017-01-11T11:53:24.052Z,19.96
2017-01-11T11:54:24.869Z,19.96
2017-01-11T11:55:24.885Z,19.99
2017-01-11T11:57:24.955Z,19.95
2017-01-11T11:58:24.572Z,19.92
2017-01-11T11:59:24.196Z,19.94
2017-01-11T12:00:24.235Z,19.92
2017-01-11T12:01:24.654Z,19.99
2017-01-11T12:02:25.078Z,19.96
2017-01-11T12:03:25.103Z,19.99
2017-01-11T12:04:24.740Z,19.98
2017-01-11T12:05:25.157Z,19.96
2017-01-11T12:06:25.181Z,19.92
2017-01-11T12:07:24.811Z,19.86
2017-01-11T12:08:24.875Z,19.87
2017-01-11T12:09:24.872Z,19.91
2017-01-11T12:10:25.289Z,19.87
2017-01-11T12:11:24.922Z,19.86
2017-01-11T12:12:24.942Z,19.98
2017-01-11T12:13:24.966Z,19.95
2017-01-11T12:14:25.003Z,19.88
2017-01-11T12:15:24.633Z,19.86
2017-01-11T12:16:25.053Z,19.88
2017-01-11T12:17:24.682Z,19.96
2017-01-11T12:18:25.490Z,19.98
2017-01-11T12:19:25.520Z,19.88
2017-01-11T12:20:25.156Z,19.88
2017-01-11T12:21:25.586Z,19.87
2017-01-11T12:22:25.606Z,19.95
2017-01-11T12:23:25.235Z,19.88
2017-01-11T12:24:25.263Z,19.91
2017-01-11T12:25:24.888Z,19.87
2017-01-11T12:26:25.713Z,19.87
2017-01-11T12:27:25.737Z,19.91
2017-01-11T12:28:24.970Z,19.94
2017-01-11T12:29:24.999Z,19.87
2017-01-11T12:30:25.415Z,19.92
2017-01-11T12:31:25.444Z,19.88
2017-01-11T12:32:25.470Z,19.91
2017-01-11T12:33:25.494Z,19.86
2017-01-11T12:34:25.915Z,19.84
2017-01-11T12:35:25.547Z,19.91
2017-01-11T12:36:25.172Z,19.91
2017-01-11T12:37:26.005Z,19.91
2017-01-11T12:38:25.234Z,19.91
2017-01-11T12:39:25.654Z,19.84
2017-01-11T12:40:25.680Z,19.84
2017-01-11T12:41:26.105Z,19.81
2017-01-11T12:42:25.724Z,19.88
2017-01-11T12:43:26.149Z,19.87
2017-01-11T12:44:25.398Z,19.84
2017-01-11T12:45:25.815Z,19.83
2017-01-11T12:46:25.439Z,19.86
2017-01-11T12:47:26.253Z,19.83
2017-01-11T12:48:25.894Z,19.84
2017-01-11T12:49:25.918Z,19.87
2017-01-11T12:50:25.947Z,19.87
2017-01-11T12:51:25.975Z,19.88
2017-01-11T12:52:26.432Z,19.87
2017-01-11T12:53:41.138Z,19.8
2017-01-11T12:54:26.441Z,19.83
2017-01-11T12:55:26.470Z,19.83
2017-01-11T12:56:26.103Z,19.88
2017-01-11T12:57:26.132Z,19.8
2017-01-11T12:58:26.541Z,19.81
2017-01-11T12:59:26.577Z,19.81
2017-01-11T13:00:25.814Z,19.84
2017-01-11T13:01:26.235Z,19.8
2017-01-11T13:02:26.665Z,19.87
2017-01-11T13:03:25.884Z,19.83
2017-01-11T13:04:25.913Z,19.88
2017-01-11T13:05:26.342Z,19.77
2017-01-11T13:06:26.759Z,19.84
2017-01-11T13:07:26.787Z,19.87
2017-01-11T13:09:26.045Z,19.84
2017-01-11T13:10:26.865Z,19.87
2017-01-11T13:11:26.894Z,19.8
2017-01-11T13:12:26.521Z,19.83
2017-01-11T13:13:26.944Z,19.8
2017-01-11T13:14:26.960Z,19.8
2017-01-11T13:15:26.997Z,19.81
2017-01-11T13:16:26.629Z,19.8
2017-01-11T13:17:27.046Z,19.83
2017-01-11T13:18:26.679Z,19.83
2017-01-11T13:19:27.096Z,19.78
2017-01-11T13:20:26.332Z,19.77
2017-01-11T13:21:26.362Z,19.71
2017-01-11T13:22:26.790Z,19.76
2017-01-11T13:23:26.811Z,19.77
2017-01-11T13:24:27.231Z,19.78
2017-01-11T13:25:26.860Z,19.77
2017-01-11T13:26:26.889Z,19.83
2017-01-11T13:27:26.914Z,19.77
2017-01-11T13:28:27.338Z,19.8
2017-01-11T13:29:26.567Z,19.77
2017-01-11T13:30:26.996Z,19.71
2017-01-11T13:31:27.412Z,19.74
2017-01-11T13:32:27.071Z,19.77
2017-01-11T13:33:27.474Z,19.71
2017-01-11T13:34:27.098Z,19.77